sensor_id;sensor_type;location;lat;lon;timestamp;P1;durP1;ratioP1;P2;durP2;ratioP2
9938;SDS011;5008;50.656;7.188;2022-10-26T00:01:15;4.00;;;2.77;;
9938;SDS011;5008;50.656;7.188;2022-10-26T00:03:56;5.77;;;3.03;;
9938;SDS011;5008;50.656;7.188;2022-10-26T00:10:22;3.37;;;2.90;;
9938;SDS011;5008;50.656;7.188;2022-10-26T00:13:15;3.73;;;2.73;;
9938;SDS011;5008;50.656;7.188;2022-10-26T00:16:10;4.80;;;3.00;;
9938;SDS011;5008;50.656;7.188;2022-10-26T00:48:10;2.57;;;2.17;;
9938;SDS011;5008;50.656;7.188;2022-10-26T00:54:17;3.87;;;2.63;;
9938;SDS011;5008;50.656;7.188;2022-10-26T00:57:20;4.97;;;2.60;;
9938;SDS011;5008;50.656;7.188;2022-10-26T01:00:10;7.60;;;2.47;;
9938;SDS011;5008;50.656;7.188;2022-10-26T01:03:23;5.20;;;2.57;;
9938;SDS011;5008;50.656;7.188;2022-10-26T01:05:56;3.50;;;2.83;;
9938;SDS011;5008;50.656;7.188;2022-10-26T01:08:36;2.40;;;2.20;;
9938;SDS011;5008;50.656;7.188;2022-10-26T01:11:11;3.07;;;2.20;;
9938;SDS011;5008;50.656;7.188;2022-10-26T01:13:39;3.77;;;2.40;;
9938;SDS011;5008;50.656;7.188;2022-10-26T01:16:23;3.93;;;2.10;;
9938;SDS011;5008;50.656;7.188;2022-10-26T01:19:46;2.77;;;1.57;;
9938;SDS011;5008;50.656;7.188;2022-10-26T01:22:38;4.03;;;2.00;;
9938;SDS011;5008;50.656;7.188;2022-10-26T01:25:26;7.30;;;1.90;;
9938;SDS011;5008;50.656;7.188;2022-10-26T01:32:00;2.20;;;1.70;;
9938;SDS011;5008;50.656;7.188;2022-10-26T01:34:42;3.27;;;1.67;;
9938;SDS011;5008;50.656;7.188;2022-10-26T01:37:27;5.30;;;1.83;;
9938;SDS011;5008;50.656;7.188;2022-10-26T01:43:30;1.77;;;1.60;;
9938;SDS011;5008;50.656;7.188;2022-10-26T01:46:17;2.67;;;1.60;;
9938;SDS011;5008;50.656;7.188;2022-10-26T01:51:57;3.80;;;1.57;;
9938;SDS011;5008;50.656;7.188;2022-10-26T01:54:45;3.43;;;1.50;;
9938;SDS011;5008;50.656;7.188;2022-10-26T02:00:26;3.30;;;1.70;;
9938;SDS011;5008;50.656;7.188;2022-10-26T02:03:00;3.73;;;1.47;;
9938;SDS011;5008;50.656;7.188;2022-10-26T02:05:49;1.43;;;1.30;;
9938;SDS011;5008;50.656;7.188;2022-10-26T02:08:50;1.77;;;1.27;;
9938;SDS011;5008;50.656;7.188;2022-10-26T02:11:37;4.97;;;1.40;;
9938;SDS011;5008;50.656;7.188;2022-10-26T02:14:10;4.30;;;2.17;;
9938;SDS011;5008;50.656;7.188;2022-10-26T02:17:12;2.70;;;1.53;;
9938;SDS011;5008;50.656;7.188;2022-10-26T02:19:58;1.40;;;1.30;;
9938;SDS011;5008;50.656;7.188;2022-10-26T02:22:45;3.63;;;1.57;;
9938;SDS011;5008;50.656;7.188;2022-10-26T02:25:23;1.90;;;1.70;;
9938;SDS011;5008;50.656;7.188;2022-10-26T02:28:41;3.37;;;1.80;;
9938;SDS011;5008;50.656;7.188;2022-10-26T02:31:32;2.90;;;1.20;;
9938;SDS011;5008;50.656;7.188;2022-10-26T02:34:13;4.00;;;1.90;;
9938;SDS011;5008;50.656;7.188;2022-10-26T02:36:59;3.20;;;1.30;;
9938;SDS011;5008;50.656;7.188;2022-10-26T02:39:36;3.73;;;1.93;;
9938;SDS011;5008;50.656;7.188;2022-10-26T02:42:26;3.10;;;1.60;;
9938;SDS011;5008;50.656;7.188;2022-10-26T02:45:23;6.13;;;1.63;;
9938;SDS011;5008;50.656;7.188;2022-10-26T02:50:58;2.30;;;1.63;;
9938;SDS011;5008;50.656;7.188;2022-10-26T02:53:33;2.73;;;2.00;;
9938;SDS011;5008;50.656;7.188;2022-10-26T02:56:36;1.83;;;1.70;;
9938;SDS011;5008;50.656;7.188;2022-10-26T02:59:16;4.27;;;1.60;;
9938;SDS011;5008;50.656;7.188;2022-10-26T03:02:27;2.03;;;1.93;;
9938;SDS011;5008;50.656;7.188;2022-10-26T03:05:05;3.83;;;1.80;;
9938;SDS011;5008;50.656;7.188;2022-10-26T03:07:36;4.50;;;1.77;;
9938;SDS011;5008;50.656;7.188;2022-10-26T03:10:06;1.93;;;1.70;;
9938;SDS011;5008;50.656;7.188;2022-10-26T03:15:31;3.57;;;2.00;;
9938;SDS011;5008;50.656;7.188;2022-10-26T03:20:59;3.97;;;1.87;;
9938;SDS011;5008;50.656;7.188;2022-10-26T03:23:27;2.37;;;1.80;;
9938;SDS011;5008;50.656;7.188;2022-10-26T03:26:07;3.90;;;1.73;;
9938;SDS011;5008;50.656;7.188;2022-10-26T03:28:43;3.33;;;1.87;;
9938;SDS011;5008;50.656;7.188;2022-10-26T03:31:14;3.97;;;2.17;;
9938;SDS011;5008;50.656;7.188;2022-10-26T03:33:46;2.40;;;1.80;;
9938;SDS011;5008;50.656;7.188;2022-10-26T03:36:20;3.30;;;1.90;;
9938;SDS011;5008;50.656;7.188;2022-10-26T03:38:50;6.30;;;2.10;;
9938;SDS011;5008;50.656;7.188;2022-10-26T03:41:24;3.87;;;1.83;;
9938;SDS011;5008;50.656;7.188;2022-10-26T03:43:58;4.27;;;2.47;;
9938;SDS011;5008;50.656;7.188;2022-10-26T03:46:33;3.90;;;1.93;;
9938;SDS011;5008;50.656;7.188;2022-10-26T03:49:06;5.57;;;2.20;;
9938;SDS011;5008;50.656;7.188;2022-10-26T03:52:03;2.67;;;2.20;;
9938;SDS011;5008;50.656;7.188;2022-10-26T03:54:40;3.50;;;2.20;;
9938;SDS011;5008;50.656;7.188;2022-10-26T03:57:18;5.57;;;2.10;;
9938;SDS011;5008;50.656;7.188;2022-10-26T03:59:57;3.93;;;2.00;;
9938;SDS011;5008;50.656;7.188;2022-10-26T04:05:42;3.63;;;1.97;;
9938;SDS011;5008;50.656;7.188;2022-10-26T04:11:24;2.70;;;2.30;;
9938;SDS011;5008;50.656;7.188;2022-10-26T04:13:52;4.40;;;2.40;;
9938;SDS011;5008;50.656;7.188;2022-10-26T04:16:21;4.17;;;2.20;;
9938;SDS011;5008;50.656;7.188;2022-10-26T04:19:06;3.37;;;2.20;;
9938;SDS011;5008;50.656;7.188;2022-10-26T04:21:42;4.80;;;2.47;;
9938;SDS011;5008;50.656;7.188;2022-10-26T04:24:12;4.57;;;2.40;;
9938;SDS011;5008;50.656;7.188;2022-10-26T04:26:46;6.47;;;2.30;;
9938;SDS011;5008;50.656;7.188;2022-10-26T04:29:16;3.67;;;2.30;;
9938;SDS011;5008;50.656;7.188;2022-10-26T04:34:28;2.67;;;2.30;;
9938;SDS011;5008;50.656;7.188;2022-10-26T04:36:57;2.73;;;2.27;;
9938;SDS011;5008;50.656;7.188;2022-10-26T04:39:24;2.93;;;2.30;;
9938;SDS011;5008;50.656;7.188;2022-10-26T04:41:52;3.93;;;2.40;;
9938;SDS011;5008;50.656;7.188;2022-10-26T04:44:19;4.13;;;2.33;;
9938;SDS011;5008;50.656;7.188;2022-10-26T04:46:46;2.73;;;2.50;;
9938;SDS011;5008;50.656;7.188;2022-10-26T04:49:13;5.40;;;3.00;;
9938;SDS011;5008;50.656;7.188;2022-10-26T04:51:42;5.10;;;2.67;;
9938;SDS011;5008;50.656;7.188;2022-10-26T04:54:09;3.10;;;2.80;;
9938;SDS011;5008;50.656;7.188;2022-10-26T04:56:37;3.10;;;2.57;;
9938;SDS011;5008;50.656;7.188;2022-10-26T04:59:04;4.00;;;2.83;;
9938;SDS011;5008;50.656;7.188;2022-10-26T05:01:39;4.60;;;3.00;;
9938;SDS011;5008;50.656;7.188;2022-10-26T05:04:05;3.57;;;3.00;;
9938;SDS011;5008;50.656;7.188;2022-10-26T05:06:32;5.67;;;3.07;;
9938;SDS011;5008;50.656;7.188;2022-10-26T05:09:01;4.63;;;3.27;;
9938;SDS011;5008;50.656;7.188;2022-10-26T05:11:28;6.40;;;3.07;;
9938;SDS011;5008;50.656;7.188;2022-10-26T05:13:54;5.23;;;3.40;;
9938;SDS011;5008;50.656;7.188;2022-10-26T05:16:21;4.70;;;3.50;;
9938;SDS011;5008;50.656;7.188;2022-10-26T05:18:48;3.60;;;3.20;;
9938;SDS011;5008;50.656;7.188;2022-10-26T05:21:15;4.20;;;3.50;;
9938;SDS011;5008;50.656;7.188;2022-10-26T05:23:43;3.53;;;3.23;;
9938;SDS011;5008;50.656;7.188;2022-10-26T05:26:16;4.27;;;3.70;;
9938;SDS011;5008;50.656;7.188;2022-10-26T05:28:43;4.60;;;2.80;;
9938;SDS011;5008;50.656;7.188;2022-10-26T05:31:10;5.50;;;2.90;;
9938;SDS011;5008;50.656;7.188;2022-10-26T05:33:37;4.47;;;3.20;;
9938;SDS011;5008;50.656;7.188;2022-10-26T05:36:04;6.20;;;3.60;;
9938;SDS011;5008;50.656;7.188;2022-10-26T05:38:32;4.63;;;3.50;;
9938;SDS011;5008;50.656;7.188;2022-10-26T05:40:58;7.27;;;3.70;;
9938;SDS011;5008;50.656;7.188;2022-10-26T05:43:27;4.93;;;3.37;;
9938;SDS011;5008;50.656;7.188;2022-10-26T05:45:54;12.23;;;3.57;;
9938;SDS011;5008;50.656;7.188;2022-10-26T05:48:21;5.00;;;3.30;;
9938;SDS011;5008;50.656;7.188;2022-10-26T05:50:48;5.63;;;3.30;;
9938;SDS011;5008;50.656;7.188;2022-10-26T05:53:15;4.70;;;3.90;;
9938;SDS011;5008;50.656;7.188;2022-10-26T05:55:43;3.63;;;3.03;;
9938;SDS011;5008;50.656;7.188;2022-10-26T05:58:10;3.93;;;3.17;;
9938;SDS011;5008;50.656;7.188;2022-10-26T06:00:41;4.27;;;3.67;;
9938;SDS011;5008;50.656;7.188;2022-10-26T06:03:34;3.83;;;3.50;;
9938;SDS011;5008;50.656;7.188;2022-10-26T06:06:07;5.93;;;3.87;;
9938;SDS011;5008;50.656;7.188;2022-10-26T06:08:38;4.23;;;3.70;;
9938;SDS011;5008;50.656;7.188;2022-10-26T06:11:07;4.73;;;3.93;;
9938;SDS011;5008;50.656;7.188;2022-10-26T06:13:34;4.03;;;3.33;;
9938;SDS011;5008;50.656;7.188;2022-10-26T06:16:08;6.33;;;3.47;;
9938;SDS011;5008;50.656;7.188;2022-10-26T06:18:47;7.37;;;3.90;;
9938;SDS011;5008;50.656;7.188;2022-10-26T06:21:25;5.47;;;4.17;;
9938;SDS011;5008;50.656;7.188;2022-10-26T06:24:05;4.80;;;3.77;;
9938;SDS011;5008;50.656;7.188;2022-10-26T06:26:39;5.73;;;4.03;;
9938;SDS011;5008;50.656;7.188;2022-10-26T06:29:17;7.23;;;4.40;;
9938;SDS011;5008;50.656;7.188;2022-10-26T06:31:51;6.80;;;4.77;;
9938;SDS011;5008;50.656;7.188;2022-10-26T06:34:20;7.43;;;5.33;;
9938;SDS011;5008;50.656;7.188;2022-10-26T06:36:51;5.43;;;4.17;;
9938;SDS011;5008;50.656;7.188;2022-10-26T06:39:18;5.83;;;3.73;;
9938;SDS011;5008;50.656;7.188;2022-10-26T06:41:46;3.70;;;3.33;;
9938;SDS011;5008;50.656;7.188;2022-10-26T06:44:17;4.23;;;3.40;;
9938;SDS011;5008;50.656;7.188;2022-10-26T06:46:47;3.23;;;2.93;;
9938;SDS011;5008;50.656;7.188;2022-10-26T06:49:27;4.07;;;3.00;;
9938;SDS011;5008;50.656;7.188;2022-10-26T06:51:57;4.87;;;3.23;;
9938;SDS011;5008;50.656;7.188;2022-10-26T06:54:30;5.83;;;3.33;;
9938;SDS011;5008;50.656;7.188;2022-10-26T07:02:54;4.90;;;3.07;;
9938;SDS011;5008;50.656;7.188;2022-10-26T07:05:23;5.37;;;3.47;;
9938;SDS011;5008;50.656;7.188;2022-10-26T07:07:49;5.43;;;3.63;;
9938;SDS011;5008;50.656;7.188;2022-10-26T07:10:17;4.40;;;3.17;;
9938;SDS011;5008;50.656;7.188;2022-10-26T07:12:43;3.93;;;3.27;;
9938;SDS011;5008;50.656;7.188;2022-10-26T07:15:10;6.70;;;3.10;;
9938;SDS011;5008;50.656;7.188;2022-10-26T07:17:43;4.83;;;3.33;;
9938;SDS011;5008;50.656;7.188;2022-10-26T07:20:13;4.10;;;3.07;;
9938;SDS011;5008;50.656;7.188;2022-10-26T07:25:17;3.57;;;2.90;;
9938;SDS011;5008;50.656;7.188;2022-10-26T07:27:44;4.50;;;3.13;;
9938;SDS011;5008;50.656;7.188;2022-10-26T07:30:11;6.13;;;3.10;;
9938;SDS011;5008;50.656;7.188;2022-10-26T07:32:37;3.40;;;2.80;;
9938;SDS011;5008;50.656;7.188;2022-10-26T07:35:06;3.40;;;3.10;;
9938;SDS011;5008;50.656;7.188;2022-10-26T07:37:35;5.97;;;3.27;;
9938;SDS011;5008;50.656;7.188;2022-10-26T07:40:03;3.10;;;2.80;;
9938;SDS011;5008;50.656;7.188;2022-10-26T07:42:30;6.40;;;3.00;;
9938;SDS011;5008;50.656;7.188;2022-10-26T07:44:57;4.53;;;3.27;;
9938;SDS011;5008;50.656;7.188;2022-10-26T07:47:24;3.60;;;2.70;;
9938;SDS011;5008;50.656;7.188;2022-10-26T07:49:51;3.77;;;2.67;;
9938;SDS011;5008;50.656;7.188;2022-10-26T07:52:17;3.30;;;3.00;;
9938;SDS011;5008;50.656;7.188;2022-10-26T07:54:46;6.43;;;3.60;;
9938;SDS011;5008;50.656;7.188;2022-10-26T07:59:42;4.23;;;3.17;;
9938;SDS011;5008;50.656;7.188;2022-10-26T08:05:02;3.00;;;2.70;;
9938;SDS011;5008;50.656;7.188;2022-10-26T08:07:30;5.83;;;2.80;;
9938;SDS011;5008;50.656;7.188;2022-10-26T08:09:58;3.13;;;2.70;;
9938;SDS011;5008;50.656;7.188;2022-10-26T08:12:31;4.53;;;2.97;;
9938;SDS011;5008;50.656;7.188;2022-10-26T08:14:58;5.23;;;2.80;;
9938;SDS011;5008;50.656;7.188;2022-10-26T08:17:25;3.83;;;2.70;;
9938;SDS011;5008;50.656;7.188;2022-10-26T08:19:53;3.70;;;2.60;;
9938;SDS011;5008;50.656;7.188;2022-10-26T08:22:20;5.40;;;2.80;;
9938;SDS011;5008;50.656;7.188;2022-10-26T08:24:47;3.33;;;2.50;;
9938;SDS011;5008;50.656;7.188;2022-10-26T08:27:15;4.20;;;2.37;;
9938;SDS011;5008;50.656;7.188;2022-10-26T08:29:42;8.27;;;6.67;;
9938;SDS011;5008;50.656;7.188;2022-10-26T08:32:11;4.47;;;2.80;;
9938;SDS011;5008;50.656;7.188;2022-10-26T08:34:38;4.10;;;2.47;;
9938;SDS011;5008;50.656;7.188;2022-10-26T08:37:06;3.10;;;2.20;;
9938;SDS011;5008;50.656;7.188;2022-10-26T08:39:33;3.20;;;2.77;;
9938;SDS011;5008;50.656;7.188;2022-10-26T08:42:01;4.90;;;2.70;;
9938;SDS011;5008;50.656;7.188;2022-10-26T08:44:34;3.33;;;2.73;;
9938;SDS011;5008;50.656;7.188;2022-10-26T08:47:05;5.23;;;2.67;;
9938;SDS011;5008;50.656;7.188;2022-10-26T08:49:40;5.03;;;2.47;;
9938;SDS011;5008;50.656;7.188;2022-10-26T08:52:12;4.97;;;2.80;;
9938;SDS011;5008;50.656;7.188;2022-10-26T08:54:43;3.13;;;2.50;;
9938;SDS011;5008;50.656;7.188;2022-10-26T08:57:15;3.33;;;2.43;;
9938;SDS011;5008;50.656;7.188;2022-10-26T08:59:49;5.13;;;2.72;;
9938;SDS011;5008;50.656;7.188;2022-10-26T09:02:19;3.13;;;2.30;;
9938;SDS011;5008;50.656;7.188;2022-10-26T09:04:49;3.90;;;2.50;;
9938;SDS011;5008;50.656;7.188;2022-10-26T09:16:26;3.17;;;2.20;;
9938;SDS011;5008;50.656;7.188;2022-10-26T09:19:00;3.38;;;2.47;;
9938;SDS011;5008;50.656;7.188;2022-10-26T09:21:50;2.40;;;2.20;;
9938;SDS011;5008;50.656;7.188;2022-10-26T09:24:27;3.83;;;2.70;;
9938;SDS011;5008;50.656;7.188;2022-10-26T09:26:57;3.00;;;2.27;;
9938;SDS011;5008;50.656;7.188;2022-10-26T09:29:37;3.05;;;2.47;;
9938;SDS011;5008;50.656;7.188;2022-10-26T09:32:09;2.40;;;2.20;;
9938;SDS011;5008;50.656;7.188;2022-10-26T09:34:45;4.25;;;2.45;;
9938;SDS011;5008;50.656;7.188;2022-10-26T09:37:16;3.38;;;2.50;;
9938;SDS011;5008;50.656;7.188;2022-10-26T09:39:51;12.27;;;3.33;;
9938;SDS011;5008;50.656;7.188;2022-10-26T09:42:27;4.68;;;2.50;;
9938;SDS011;5008;50.656;7.188;2022-10-26T09:45:00;2.92;;;2.35;;
9938;SDS011;5008;50.656;7.188;2022-10-26T09:47:34;3.42;;;2.40;;
9938;SDS011;5008;50.656;7.188;2022-10-26T09:50:15;4.10;;;2.55;;
9938;SDS011;5008;50.656;7.188;2022-10-26T09:52:48;3.13;;;2.70;;
9938;SDS011;5008;50.656;7.188;2022-10-26T09:55:15;3.72;;;2.75;;
9938;SDS011;5008;50.656;7.188;2022-10-26T09:57:43;4.13;;;2.50;;
9938;SDS011;5008;50.656;7.188;2022-10-26T10:00:13;4.05;;;2.58;;
9938;SDS011;5008;50.656;7.188;2022-10-26T10:02:43;2.63;;;2.40;;
9938;SDS011;5008;50.656;7.188;2022-10-26T10:05:28;3.15;;;2.22;;
9938;SDS011;5008;50.656;7.188;2022-10-26T10:08:10;6.78;;;3.20;;
9938;SDS011;5008;50.656;7.188;2022-10-26T10:10:58;3.58;;;2.53;;
9938;SDS011;5008;50.656;7.188;2022-10-26T10:13:28;3.55;;;2.40;;
9938;SDS011;5008;50.656;7.188;2022-10-26T10:16:00;4.45;;;2.75;;
9938;SDS011;5008;50.656;7.188;2022-10-26T10:18:31;3.92;;;2.67;;
9938;SDS011;5008;50.656;7.188;2022-10-26T10:21:03;3.20;;;2.53;;
9938;SDS011;5008;50.656;7.188;2022-10-26T10:23:31;3.38;;;2.60;;
9938;SDS011;5008;50.656;7.188;2022-10-26T10:26:00;4.43;;;2.50;;
9938;SDS011;5008;50.656;7.188;2022-10-26T10:28:30;4.55;;;2.58;;
9938;SDS011;5008;50.656;7.188;2022-10-26T10:30:58;3.42;;;2.25;;
9938;SDS011;5008;50.656;7.188;2022-10-26T10:33:35;4.78;;;2.90;;
9938;SDS011;5008;50.656;7.188;2022-10-26T10:36:04;4.82;;;2.70;;
9938;SDS011;5008;50.656;7.188;2022-10-26T10:38:37;2.53;;;2.10;;
9938;SDS011;5008;50.656;7.188;2022-10-26T10:41:05;4.30;;;2.30;;
9938;SDS011;5008;50.656;7.188;2022-10-26T10:43:42;1.83;;;1.73;;
9938;SDS011;5008;50.656;7.188;2022-10-26T10:46:16;2.17;;;1.80;;
9938;SDS011;5008;50.656;7.188;2022-10-26T10:48:47;2.63;;;2.13;;
9938;SDS011;5008;50.656;7.188;2022-10-26T10:51:19;5.75;;;2.35;;
9938;SDS011;5008;50.656;7.188;2022-10-26T10:53:48;7.00;;;2.55;;
9938;SDS011;5008;50.656;7.188;2022-10-26T10:56:22;4.80;;;2.40;;
9938;SDS011;5008;50.656;7.188;2022-10-26T10:59:05;3.17;;;2.17;;
9938;SDS011;5008;50.656;7.188;2022-10-26T11:01:47;3.50;;;2.47;;
9938;SDS011;5008;50.656;7.188;2022-10-26T11:04:24;1.88;;;1.42;;
9938;SDS011;5008;50.656;7.188;2022-10-26T11:07:05;3.70;;;1.83;;
9938;SDS011;5008;50.656;7.188;2022-10-26T11:12:32;2.55;;;1.90;;
9938;SDS011;5008;50.656;7.188;2022-10-26T11:15:10;1.92;;;1.73;;
9938;SDS011;5008;50.656;7.188;2022-10-26T11:17:44;1.50;;;1.40;;
9938;SDS011;5008;50.656;7.188;2022-10-26T11:23:11;1.77;;;1.60;;
9938;SDS011;5008;50.656;7.188;2022-10-26T11:25:57;2.30;;;1.85;;
9938;SDS011;5008;50.656;7.188;2022-10-26T11:28:53;6.75;;;2.70;;
9938;SDS011;5008;50.656;7.188;2022-10-26T11:34:47;3.60;;;1.77;;
9938;SDS011;5008;50.656;7.188;2022-10-26T11:37:38;4.55;;;1.90;;
9938;SDS011;5008;50.656;7.188;2022-10-26T11:40:25;4.90;;;2.08;;
9938;SDS011;5008;50.656;7.188;2022-10-26T11:43:05;2.30;;;2.10;;
9938;SDS011;5008;50.656;7.188;2022-10-26T11:45:48;1.58;;;1.30;;
9938;SDS011;5008;50.656;7.188;2022-10-26T11:48:27;1.70;;;1.60;;
9938;SDS011;5008;50.656;7.188;2022-10-26T11:57:21;3.40;;;1.60;;
9938;SDS011;5008;50.656;7.188;2022-10-26T11:59:49;2.00;;;1.80;;
9938;SDS011;5008;50.656;7.188;2022-10-26T12:02:22;2.95;;;1.83;;
9938;SDS011;5008;50.656;7.188;2022-10-26T12:05:02;1.33;;;1.20;;
9938;SDS011;5008;50.656;7.188;2022-10-26T12:07:37;2.63;;;1.60;;
9938;SDS011;5008;50.656;7.188;2022-10-26T12:10:18;1.15;;;1.15;;
9938;SDS011;5008;50.656;7.188;2022-10-26T12:12:54;1.15;;;1.10;;
9938;SDS011;5008;50.656;7.188;2022-10-26T12:15:35;2.15;;;1.67;;
9938;SDS011;5008;50.656;7.188;2022-10-26T12:18:11;2.60;;;1.70;;
9938;SDS011;5008;50.656;7.188;2022-10-26T12:20:52;2.50;;;1.70;;
9938;SDS011;5008;50.656;7.188;2022-10-26T12:23:27;1.20;;;1.10;;
9938;SDS011;5008;50.656;7.188;2022-10-26T12:29:23;3.63;;;1.83;;
9938;SDS011;5008;50.656;7.188;2022-10-26T12:31:55;3.33;;;1.90;;
9938;SDS011;5008;50.656;7.188;2022-10-26T12:34:40;1.85;;;1.70;;
9938;SDS011;5008;50.656;7.188;2022-10-26T12:37:30;2.30;;;1.40;;
9938;SDS011;5008;50.656;7.188;2022-10-26T12:52:40;2.00;;;1.33;;
9938;SDS011;5008;50.656;7.188;2022-10-26T12:55:41;2.78;;;1.75;;
9938;SDS011;5008;50.656;7.188;2022-10-26T12:59:02;1.60;;;1.50;;
9938;SDS011;5008;50.656;7.188;2022-10-26T13:02:21;3.20;;;1.83;;
9938;SDS011;5008;50.656;7.188;2022-10-26T13:05:13;2.63;;;1.42;;
9938;SDS011;5008;50.656;7.188;2022-10-26T13:09:05;1.75;;;1.20;;
9938;SDS011;5008;50.656;7.188;2022-10-26T13:11:43;1.88;;;0.98;;
9938;SDS011;5008;50.656;7.188;2022-10-26T13:14:20;1.00;;;0.70;;
9938;SDS011;5008;50.656;7.188;2022-10-26T13:17:20;1.13;;;0.90;;
9938;SDS011;5008;50.656;7.188;2022-10-26T13:20:02;3.10;;;1.10;;
9938;SDS011;5008;50.656;7.188;2022-10-26T13:22:48;1.23;;;0.60;;
9938;SDS011;5008;50.656;7.188;2022-10-26T13:25:22;1.00;;;0.57;;
9938;SDS011;5008;50.656;7.188;2022-10-26T13:31:02;2.25;;;1.02;;
9938;SDS011;5008;50.656;7.188;2022-10-26T13:33:30;1.48;;;1.20;;
9938;SDS011;5008;50.656;7.188;2022-10-26T13:36:05;2.28;;;0.70;;
9938;SDS011;5008;50.656;7.188;2022-10-26T13:38:42;0.63;;;0.63;;
9938;SDS011;5008;50.656;7.188;2022-10-26T13:41:16;1.58;;;0.88;;
9938;SDS011;5008;50.656;7.188;2022-10-26T13:43:55;0.65;;;0.65;;
9938;SDS011;5008;50.656;7.188;2022-10-26T13:46:26;0.95;;;0.82;;
9938;SDS011;5008;50.656;7.188;2022-10-26T13:49:02;2.10;;;0.80;;
9938;SDS011;5008;50.656;7.188;2022-10-26T13:51:38;1.27;;;0.80;;
9938;SDS011;5008;50.656;7.188;2022-10-26T13:54:17;1.42;;;0.82;;
9938;SDS011;5008;50.656;7.188;2022-10-26T13:57:13;1.35;;;0.98;;
9938;SDS011;5008;50.656;7.188;2022-10-26T13:59:51;3.28;;;1.27;;
9938;SDS011;5008;50.656;7.188;2022-10-26T14:02:25;2.42;;;0.90;;
9938;SDS011;5008;50.656;7.188;2022-10-26T14:05:15;1.33;;;1.05;;
9938;SDS011;5008;50.656;7.188;2022-10-26T14:08:00;2.22;;;1.02;;
9938;SDS011;5008;50.656;7.188;2022-10-26T14:10:33;0.90;;;0.90;;
9938;SDS011;5008;50.656;7.188;2022-10-26T14:13:07;1.67;;;1.15;;
9938;SDS011;5008;50.656;7.188;2022-10-26T14:15:42;1.40;;;1.15;;
9938;SDS011;5008;50.656;7.188;2022-10-26T14:18:22;1.27;;;0.88;;
9938;SDS011;5008;50.656;7.188;2022-10-26T14:20:54;1.10;;;1.00;;
9938;SDS011;5008;50.656;7.188;2022-10-26T14:23:32;2.50;;;1.10;;
9938;SDS011;5008;50.656;7.188;2022-10-26T14:26:00;1.48;;;1.30;;
9938;SDS011;5008;50.656;7.188;2022-10-26T14:28:37;1.88;;;1.13;;
9938;SDS011;5008;50.656;7.188;2022-10-26T14:31:23;0.80;;;0.80;;
9938;SDS011;5008;50.656;7.188;2022-10-26T14:33:52;1.05;;;0.95;;
9938;SDS011;5008;50.656;7.188;2022-10-26T14:36:21;2.05;;;1.20;;
9938;SDS011;5008;50.656;7.188;2022-10-26T14:38:57;2.40;;;1.17;;
9938;SDS011;5008;50.656;7.188;2022-10-26T14:41:29;2.35;;;1.02;;
9938;SDS011;5008;50.656;7.188;2022-10-26T14:44:02;1.15;;;1.00;;
9938;SDS011;5008;50.656;7.188;2022-10-26T14:46:31;1.10;;;1.00;;
9938;SDS011;5008;50.656;7.188;2022-10-26T14:49:14;2.35;;;1.17;;
9938;SDS011;5008;50.656;7.188;2022-10-26T14:51:45;1.30;;;1.20;;
9938;SDS011;5008;50.656;7.188;2022-10-26T14:54:18;1.30;;;1.20;;
9938;SDS011;5008;50.656;7.188;2022-10-26T14:56:46;2.63;;;1.10;;
9938;SDS011;5008;50.656;7.188;2022-10-26T14:59:19;1.20;;;1.10;;
9938;SDS011;5008;50.656;7.188;2022-10-26T15:01:51;1.40;;;1.30;;
9938;SDS011;5008;50.656;7.188;2022-10-26T15:10:46;2.13;;;1.20;;
9938;SDS011;5008;50.656;7.188;2022-10-26T15:13:30;1.98;;;1.40;;
9938;SDS011;5008;50.656;7.188;2022-10-26T15:16:09;3.17;;;1.40;;
9938;SDS011;5008;50.656;7.188;2022-10-26T15:18:46;3.22;;;1.55;;
9938;SDS011;5008;50.656;7.188;2022-10-26T15:21:20;1.52;;;1.15;;
9938;SDS011;5008;50.656;7.188;2022-10-26T15:23:49;1.70;;;1.60;;
9938;SDS011;5008;50.656;7.188;2022-10-26T15:26:18;2.17;;;1.35;;
9938;SDS011;5008;50.656;7.188;2022-10-26T15:28:57;1.70;;;1.60;;
9938;SDS011;5008;50.656;7.188;2022-10-26T15:31:29;3.45;;;1.83;;
9938;SDS011;5008;50.656;7.188;2022-10-26T15:34:11;1.75;;;1.50;;
9938;SDS011;5008;50.656;7.188;2022-10-26T15:37:02;2.22;;;1.40;;
9938;SDS011;5008;50.656;7.188;2022-10-26T15:39:37;1.48;;;1.38;;
9938;SDS011;5008;50.656;7.188;2022-10-26T15:45:00;5.05;;;2.50;;
9938;SDS011;5008;50.656;7.188;2022-10-26T15:47:50;3.85;;;2.10;;
9938;SDS011;5008;50.656;7.188;2022-10-26T15:50:22;2.70;;;2.50;;
9938;SDS011;5008;50.656;7.188;2022-10-26T15:53:12;7.00;;;3.92;;
9938;SDS011;5008;50.656;7.188;2022-10-26T15:55:45;12.30;;;10.32;;
9938;SDS011;5008;50.656;7.188;2022-10-26T15:58:18;15.38;;;13.88;;
9938;SDS011;5008;50.656;7.188;2022-10-26T16:00:59;14.82;;;12.82;;
9938;SDS011;5008;50.656;7.188;2022-10-26T16:03:43;15.43;;;13.30;;
9938;SDS011;5008;50.656;7.188;2022-10-26T16:06:14;13.73;;;12.30;;
9938;SDS011;5008;50.656;7.188;2022-10-26T16:08:56;14.20;;;12.65;;
9938;SDS011;5008;50.656;7.188;2022-10-26T16:11:38;14.23;;;12.63;;
9938;SDS011;5008;50.656;7.188;2022-10-26T16:14:15;12.43;;;10.60;;
9938;SDS011;5008;50.656;7.188;2022-10-26T16:16:54;11.13;;;9.68;;
9938;SDS011;5008;50.656;7.188;2022-10-26T16:19:38;7.47;;;6.45;;
9938;SDS011;5008;50.656;7.188;2022-10-26T16:22:34;8.52;;;6.82;;
9938;SDS011;5008;50.656;7.188;2022-10-26T16:25:02;12.52;;;6.28;;
9938;SDS011;5008;50.656;7.188;2022-10-26T16:27:29;7.40;;;6.25;;
9938;SDS011;5008;50.656;7.188;2022-10-26T16:30:00;36.15;;;32.30;;
9938;SDS011;5008;50.656;7.188;2022-10-26T16:32:28;28.58;;;24.55;;
9938;SDS011;5008;50.656;7.188;2022-10-26T16:34:58;20.50;;;17.23;;
9938;SDS011;5008;50.656;7.188;2022-10-26T16:37:44;16.80;;;15.00;;
9938;SDS011;5008;50.656;7.188;2022-10-26T16:40:12;10.02;;;9.00;;
9938;SDS011;5008;50.656;7.188;2022-10-26T16:42:39;12.65;;;10.43;;
9938;SDS011;5008;50.656;7.188;2022-10-26T16:45:31;10.80;;;7.40;;
9938;SDS011;5008;50.656;7.188;2022-10-26T16:48:35;10.73;;;6.65;;
9938;SDS011;5008;50.656;7.188;2022-10-26T16:51:16;9.80;;;5.13;;
9938;SDS011;5008;50.656;7.188;2022-10-26T16:53:48;5.53;;;3.95;;
9938;SDS011;5008;50.656;7.188;2022-10-26T16:56:18;5.30;;;3.80;;
9938;SDS011;5008;50.656;7.188;2022-10-26T16:58:49;6.43;;;4.13;;
9938;SDS011;5008;50.656;7.188;2022-10-26T17:01:17;4.40;;;3.70;;
9938;SDS011;5008;50.656;7.188;2022-10-26T17:03:45;4.82;;;3.85;;
9938;SDS011;5008;50.656;7.188;2022-10-26T17:06:13;4.93;;;3.75;;
9938;SDS011;5008;50.656;7.188;2022-10-26T17:08:43;6.50;;;3.60;;
9938;SDS011;5008;50.656;7.188;2022-10-26T17:11:10;5.90;;;3.55;;
9938;SDS011;5008;50.656;7.188;2022-10-26T17:13:40;8.63;;;5.28;;
9938;SDS011;5008;50.656;7.188;2022-10-26T17:16:10;9.98;;;6.95;;
9938;SDS011;5008;50.656;7.188;2022-10-26T17:18:44;14.30;;;8.68;;
9938;SDS011;5008;50.656;7.188;2022-10-26T17:21:12;15.10;;;8.93;;
9938;SDS011;5008;50.656;7.188;2022-10-26T17:23:47;9.23;;;6.70;;
9938;SDS011;5008;50.656;7.188;2022-10-26T17:26:26;16.73;;;8.70;;
9938;SDS011;5008;50.656;7.188;2022-10-26T17:28:54;11.18;;;6.68;;
9938;SDS011;5008;50.656;7.188;2022-10-26T17:31:23;11.80;;;8.07;;
9938;SDS011;5008;50.656;7.188;2022-10-26T17:33:51;15.15;;;8.60;;
9938;SDS011;5008;50.656;7.188;2022-10-26T17:36:19;8.23;;;6.15;;
9938;SDS011;5008;50.656;7.188;2022-10-26T17:38:48;6.88;;;4.82;;
9938;SDS011;5008;50.656;7.188;2022-10-26T17:41:17;8.20;;;5.25;;
9938;SDS011;5008;50.656;7.188;2022-10-26T17:43:57;4.82;;;4.00;;
9938;SDS011;5008;50.656;7.188;2022-10-26T17:46:25;8.90;;;5.35;;
9938;SDS011;5008;50.656;7.188;2022-10-26T17:48:53;10.38;;;5.38;;
9938;SDS011;5008;50.656;7.188;2022-10-26T17:51:37;6.10;;;5.13;;
9938;SDS011;5008;50.656;7.188;2022-10-26T17:54:06;5.82;;;5.15;;
9938;SDS011;5008;50.656;7.188;2022-10-26T17:56:36;5.75;;;4.85;;
9938;SDS011;5008;50.656;7.188;2022-10-26T17:59:09;5.88;;;5.30;;
9938;SDS011;5008;50.656;7.188;2022-10-26T18:01:37;7.38;;;5.32;;
9938;SDS011;5008;50.656;7.188;2022-10-26T18:04:10;6.28;;;5.30;;
9938;SDS011;5008;50.656;7.188;2022-10-26T18:06:58;7.25;;;5.93;;
9938;SDS011;5008;50.656;7.188;2022-10-26T18:09:27;6.13;;;4.90;;
9938;SDS011;5008;50.656;7.188;2022-10-26T18:11:54;6.65;;;5.20;;
9938;SDS011;5008;50.656;7.188;2022-10-26T18:14:21;4.97;;;4.57;;
9938;SDS011;5008;50.656;7.188;2022-10-26T18:16:49;4.80;;;4.40;;
9938;SDS011;5008;50.656;7.188;2022-10-26T18:19:27;7.25;;;5.50;;
9938;SDS011;5008;50.656;7.188;2022-10-26T18:21:55;11.35;;;4.35;;